Seago Piraeus — OXVD2 — position and weather

sailwx.info

Track history (hours):
 
Tides and Currents Weather Stations Pressure Air Temp Water Temp Dewpoint Dewpoint Depression Visibility Wind Speed Wind Dir Waves Ship Positions

Seago Piraeus

Last reported at 2014-Oct-21 06:30 UTC. Time now 2014-Oct-21 07:19 UTC.
Position N 38°37' E 000°24'.

Length 294 m; draft 14 m.

Type: Ship (hazmat cat A). MMSI: 219117000.

Date/timePositionNaut miles runAvg speedWind from/ knotsBaromVisibWave heightAir tempDewpointWater temp
2014-Oct-21 06:30N 38°37' E 000°24'1414.5
2014-Oct-21 05:32N 38°26' E 000°14'1018.8
2014-Oct-21 05:00N 38°18' E 000°06'510.8 040 / 31019.7 0.3 21.019.122.0
2014-Oct-21 04:31N 38°13' E 000°05'1414.6
2014-Oct-21 03:33N 38°02' W 000°06'1514.8
2014-Oct-21 02:33N 37°50' W 000°17'1514.7
2014-Oct-21 01:33N 37°38' W 000°27'1414.1
2014-Oct-21 00:33N 37°27' W 000°39'916.3
2014-Oct-21 00:00N 37°18' W 000°42'818.1 050 / 141019.6 5.4 1.022.521.022.0
2014-Oct-20 23:33N 37°17' W 000°52'1514.5
2014-Oct-20 22:33N 37°08' W 001°06'1514.8
2014-Oct-20 21:33N 36°58' W 001°20'3114.6
2014-Oct-20 19:28N 36°38' W 001°49'3014.2
2014-Oct-20 17:22N 36°22' W 002°20'7714.4
2014-Oct-20 12:00N 36°06' W 003°54'7216.2 090 / 281018.4 5.4 2.524.017.622.0
2014-Oct-20 07:33N 35°59' W 005°22'3112.1
2014-Oct-20 05:00N 35°54' W 006°00'6412.8 100 / 441013.410.8 3.023.018.319.0
2014-Oct-20 00:00N 36°06' W 007°18'4016.2 110 / 331012.0 5.4 3.025.017.922.0
2014-Oct-19 21:32N 36°19' W 008°05'1514.9
2014-Oct-19 20:33N 36°23' W 008°22'1514.9
2014-Oct-19 19:33N 36°27' W 008°40'1514.8
2014-Oct-19 18:33N 36°31' W 008°58'2814.1
2014-Oct-19 16:33N 36°45' W 009°28'4714.1
2014-Oct-19 13:13N 37°30' W 009°45'1014.9
2014-Oct-19 12:33N 37°39' W 009°48'1514.6
2014-Oct-19 11:33N 37°54' W 009°52'1414.5
2014-Oct-19 10:33N 38°08' W 009°56'1414.3
2014-Oct-19 09:33N 38°22' W 009°60'1514.6
2014-Oct-19 08:33N 38°36' W 010°04'1514.9
2014-Oct-19 07:33N 38°51' W 010°06'11114.7
2014-Oct-19 00:00N 40°42' W 010°06'9012.9 180 / 171015.710.8 2.020.518.919.0
2014-Oct-18 17:00N 42°12' W 010°00'6613.2 180 / 321012.2 5.4 1.521.519.118.0
2014-Oct-18 12:00N 43°18' W 010°00'8211.7 180 / 301009.6 2.2 4.519.019.018.0
2014-Oct-18 05:00N 44°30' W 009°06'13811.5 200 / 281008.010.8 2.020.519.718.0
2014-Oct-17 17:00N 46°30' W 007°30'5911.9 210 / 341001.610.8 4.020.819.617.0
2014-Oct-17 12:00N 47°24' W 006°54'8812.5 180 / 301002.7 5.4 4.517.017.016.0
2014-Oct-17 05:00N 48°42' W 005°54'6312.5 210 / 91009.1 5.4 2.519.017.715.0
2014-Oct-17 00:00N 49°18' W 004°36'4812.9 210 / 211003.5 5.4 2.516.015.714.0
2014-Oct-16 20:17N 49°44' W 003°35'1013.4
2014-Oct-16 19:33N 49°49' W 003°22'1414.2
2014-Oct-16 18:33N 49°57' W 003°03'2544.7
2014-Oct-16 18:00N 50°00' W 002°24'1125.7 190 / 101006.3 5.4 2.016.516.517.0
2014-Oct-16 17:33N 50°01' W 002°42'1414.5
2014-Oct-16 16:33N 50°04' W 002°20'4213.0
2014-Oct-16 13:20N 50°16' W 001°17'1012.4
2014-Oct-16 12:33N 50°19' W 001°02'4413.9
2014-Oct-16 09:21N 50°31' E 000°05'1214.8
2014-Oct-16 08:33N 50°33' E 000°23'1414.3
2014-Oct-16 07:33N 50°39' E 000°44'1713.8
2014-Oct-16 06:18N 50°51' E 001°04'1012.9
2014-Oct-16 05:33N 50°57' E 001°15'1212.5
2014-Oct-16 04:33N 51°05' E 001°30'1312.8
2014-Oct-16 03:33N 51°13' E 001°46'1413.5
2014-Oct-16 02:33N 51°25' E 001°58'1414.0
2014-Oct-16 01:34N 51°21' E 002°19'1414.4
2014-Oct-16 00:34N 51°23' E 002°42'1514.5
2014-Oct-15 23:33N 51°24' E 003°05'1717.0
2014-Oct-15 22:34N 51°25' E 003°32'1211.9
2014-Oct-15 21:34N 51°21' E 003°50'1111.0
2014-Oct-15 20:34N 51°22' E 004°07'7 6.9
2014-Oct-15 19:33N 51°18' E 004°16'0 0.0
2014-Oct-15 18:33N 51°18' E 004°16'0 0.0
2014-Oct-15 17:33N 51°18' E 004°16'0 0.0
2014-Oct-15 16:33N 51°18' E 004°16'0 0.0
2014-Oct-15 15:30N 51°18' E 004°16'0 0.0
2014-Oct-15 14:33N 51°18' E 004°16'0 0.0
2014-Oct-15 13:27N 51°18' E 004°16'0 0.0
2014-Oct-15 12:33N 51°18' E 004°16'0 0.0
2014-Oct-15 11:30N 51°18' E 004°16'0 0.0
2014-Oct-15 10:33N 51°18' E 004°16'0 0.0
2014-Oct-15 09:33N 51°18' E 004°16'0 0.0
2014-Oct-15 08:33N 51°18' E 004°16'0 0.0
2014-Oct-15 07:33N 51°18' E 004°16'0 0.0
2014-Oct-15 06:33N 51°18' E 004°16'0 0.0
2014-Oct-15 05:33N 51°18' E 004°16'0 0.0
2014-Oct-15 04:33N 51°18' E 004°16'0 0.0
2014-Oct-15 03:33N 51°18' E 004°16'0 0.0
2014-Oct-15 02:33N 51°18' E 004°16'0 0.0
2014-Oct-15 01:33N 51°18' E 004°16'0 0.0
2014-Oct-15 00:33N 51°18' E 004°16'0 0.0
2014-Oct-14 23:33N 51°18' E 004°16'0 0.0
2014-Oct-14 22:33N 51°18' E 004°16'0 0.0
2014-Oct-14 21:33N 51°18' E 004°16'0 0.0
2014-Oct-14 20:33N 51°18' E 004°16'0 0.0
2014-Oct-14 19:33N 51°18' E 004°16'0 0.0
2014-Oct-14 18:33N 51°18' E 004°16'0 0.0
2014-Oct-14 17:33N 51°18' E 004°16'0 0.0
2014-Oct-14 16:33N 51°18' E 004°16'0 0.0
2014-Oct-14 15:30N 51°18' E 004°16'0 0.0
2014-Oct-14 14:33N 51°18' E 004°16'0 0.0
2014-Oct-14 13:33N 51°18' E 004°16'0 0.0
2014-Oct-14 12:33N 51°18' E 004°16'1 0.7
2014-Oct-14 11:34N 51°19' E 004°16'6 6.2
2014-Oct-14 10:33N 51°22' E 004°09'7 7.3
2014-Oct-14 09:33N 51°23' E 003°57'9 9.2
2014-Oct-14 08:33N 51°25' E 003°42'1010.1
2014-Oct-14 07:34N 51°25' E 003°26'1616.1
2014-Oct-14 06:33N 51°26' E 003°00'2222.1
2014-Oct-14 05:33N 51°46' E 003°14'2 1.6
2014-Oct-14 04:33N 51°47' E 003°17'4 3.7
2014-Oct-14 03:30N 51°48' E 003°23'0 0.0
2014-Oct-14 02:30N 51°48' E 003°23'0 0.2
2014-Oct-14 01:21N 51°48' E 003°22'0 0.1
2014-Oct-14 00:33N 51°48' E 003°22'0 0.1
2014-Oct-13 23:24N 51°48' E 003°22'0 0.2
2014-Oct-13 22:33N 51°48' E 003°22'0 0.1
2014-Oct-13 21:33N 51°48' E 003°23'0 0.0
2014-Oct-13 20:30N 51°48' E 003°22'0 0.0
2014-Oct-13 19:30N 51°48' E 003°23'0 0.0
2014-Oct-13 18:15N 51°48' E 003°23'0 0.0
2014-Oct-13 17:18N 51°48' E 003°23'0 0.0
2014-Oct-13 16:30N 51°48' E 003°23'0 0.1
2014-Oct-13 13:21N 51°48' E 003°22'0 0.1
2014-Oct-13 12:33N 51°48' E 003°22'0 0.0
2014-Oct-13 11:27N 51°48' E 003°22'0 0.2
2014-Oct-13 10:29N 51°48' E 003°22'0 0.1
2014-Oct-13 09:33N 51°48' E 003°22'0 0.1
2014-Oct-13 08:31N 51°48' E 003°22'0 0.0
2014-Oct-13 07:33N 51°48' E 003°22'2 1.9
2014-Oct-13 06:31N 51°50' E 003°23'6 6.2
2014-Oct-13 05:29N 51°57' E 003°21'8 8.4
2014-Oct-13 04:30N 52°05' E 003°21'9 7.9
2014-Oct-13 03:25N 52°13' E 003°23'9 8.4
2014-Oct-13 02:17N 52°22' E 003°27'44 9.0
2014-Oct-12 21:23N 52°59' E 004°06'8 9.6
2014-Oct-12 20:33N 53°05' E 004°15'9 8.6
2014-Oct-12 19:33N 53°11' E 004°26'8 7.9
2014-Oct-12 18:33N 53°18' E 004°31'8 7.8
2014-Oct-12 17:33N 53°25' E 004°36'8 7.8
2014-Oct-12 16:33N 53°30' E 004°47'9 9.1
2014-Oct-12 15:33N 53°33' E 005°01'1110.8
2014-Oct-12 14:33N 53°37' E 005°18'1413.6
2014-Oct-12 13:33N 53°41' E 005°40'1312.9
2014-Oct-12 12:33N 53°45' E 006°00'1212.0
2014-Oct-12 11:33N 53°49' E 006°20'1311.3
2014-Oct-12 10:23N 53°52' E 006°41'911.2
2014-Oct-12 09:33N 53°54' E 006°57'2412.0
2014-Oct-12 07:33N 53°59' E 007°37'1211.9
2014-Oct-12 06:33N 53°52' E 007°53'1514.9
2014-Oct-12 05:33N 53°44' E 008°14'1312.6
2014-Oct-12 04:34N 53°36' E 008°31'0 0.0
2014-Oct-12 03:33N 53°36' E 008°31'0 0.0
2014-Oct-12 02:31N 53°36' E 008°31'0 0.0
2014-Oct-12 01:31N 53°36' E 008°31'0 0.0
2014-Oct-12 00:31N 53°36' E 008°31'0 0.0
2014-Oct-11 23:31N 53°36' E 008°31'0 0.0
2014-Oct-11 22:31N 53°36' E 008°31'0 0.0
2014-Oct-11 21:31N 53°36' E 008°31'0 0.0
2014-Oct-11 20:31N 53°36' E 008°31'0 0.0
2014-Oct-11 19:31N 53°36' E 008°31'0 0.0
2014-Oct-11 18:31N 53°36' E 008°31'0 0.0
2014-Oct-11 17:31N 53°36' E 008°31'0 0.0
2014-Oct-11 16:31N 53°36' E 008°31'0 0.0
2014-Oct-11 15:31N 53°36' E 008°31'0 0.0
2014-Oct-11 14:31N 53°36' E 008°31'0 0.0
2014-Oct-11 13:31N 53°36' E 008°31'0 0.0
2014-Oct-11 12:31N 53°36' E 008°31'0 0.0
2014-Oct-11 11:31N 53°36' E 008°31'0 0.0
2014-Oct-11 10:34N 53°36' E 008°31'4 3.6
2014-Oct-11 09:34N 53°38' E 008°26'1616.2
2014-Oct-11 08:34N 53°49' E 008°06'1414.1
2014-Oct-11 07:33N 53°53' E 007°43'1211.9
2014-Oct-11 06:33N 53°54' E 007°23'  
Track history (hours):
 
Tides and Currents Weather Stations Pressure Air Temp Water Temp Dewpoint Dewpoint Depression Visibility Wind Speed Wind Dir Waves Ship Positions

Seago Piraeus

Last reported at 2014-Oct-21 06:30 UTC. Time now 2014-Oct-21 07:19 UTC.
Position N 38°37' E 000°24'.

Length 294 m; draft 14 m.

Type: Ship (hazmat cat A). MMSI: 219117000.

Date/timePositionNaut miles runAvg speedWind from/ knotsBaromVisibWave heightAir tempDewpointWater temp
2014-Oct-21 06:30N 38°37' E 000°24'1414.5
2014-Oct-21 05:32N 38°26' E 000°14'1018.8
2014-Oct-21 05:00N 38°18' E 000°06'510.8 040 / 31019.7 0.3 21.019.122.0
2014-Oct-21 04:31N 38°13' E 000°05'1414.6
2014-Oct-21 03:33N 38°02' W 000°06'1514.8
2014-Oct-21 02:33N 37°50' W 000°17'1514.7
2014-Oct-21 01:33N 37°38' W 000°27'1414.1
2014-Oct-21 00:33N 37°27' W 000°39'916.3
2014-Oct-21 00:00N 37°18' W 000°42'818.1 050 / 141019.6 5.4 1.022.521.022.0
2014-Oct-20 23:33N 37°17' W 000°52'1514.5
2014-Oct-20 22:33N 37°08' W 001°06'1514.8
2014-Oct-20 21:33N 36°58' W 001°20'3114.6
2014-Oct-20 19:28N 36°38' W 001°49'3014.2
2014-Oct-20 17:22N 36°22' W 002°20'7714.4
2014-Oct-20 12:00N 36°06' W 003°54'7216.2 090 / 281018.4 5.4 2.524.017.622.0
2014-Oct-20 07:33N 35°59' W 005°22'3112.1
2014-Oct-20 05:00N 35°54' W 006°00'6412.8 100 / 441013.410.8 3.023.018.319.0
2014-Oct-20 00:00N 36°06' W 007°18'4016.2 110 / 331012.0 5.4 3.025.017.922.0
2014-Oct-19 21:32N 36°19' W 008°05'1514.9
2014-Oct-19 20:33N 36°23' W 008°22'1514.9
2014-Oct-19 19:33N 36°27' W 008°40'1514.8
2014-Oct-19 18:33N 36°31' W 008°58'2814.1
2014-Oct-19 16:33N 36°45' W 009°28'4714.1
2014-Oct-19 13:13N 37°30' W 009°45'1014.9
2014-Oct-19 12:33N 37°39' W 009°48'1514.6
2014-Oct-19 11:33N 37°54' W 009°52'1414.5
2014-Oct-19 10:33N 38°08' W 009°56'1414.3
2014-Oct-19 09:33N 38°22' W 009°60'1514.6
2014-Oct-19 08:33N 38°36' W 010°04'1514.9
2014-Oct-19 07:33N 38°51' W 010°06'11114.7
2014-Oct-19 00:00N 40°42' W 010°06'9012.9 180 / 171015.710.8 2.020.518.919.0
2014-Oct-18 17:00N 42°12' W 010°00'6613.2 180 / 321012.2 5.4 1.521.519.118.0
2014-Oct-18 12:00N 43°18' W 010°00'8211.7 180 / 301009.6 2.2 4.519.019.018.0
2014-Oct-18 05:00N 44°30' W 009°06'13811.5 200 / 281008.010.8 2.020.519.718.0
2014-Oct-17 17:00N 46°30' W 007°30'5911.9 210 / 341001.610.8 4.020.819.617.0
2014-Oct-17 12:00N 47°24' W 006°54'8812.5 180 / 301002.7 5.4 4.517.017.016.0
2014-Oct-17 05:00N 48°42' W 005°54'6312.5 210 / 91009.1 5.4 2.519.017.715.0
2014-Oct-17 00:00N 49°18' W 004°36'4812.9 210 / 211003.5 5.4 2.516.015.714.0
2014-Oct-16 20:17N 49°44' W 003°35'1013.4
2014-Oct-16 19:33N 49°49' W 003°22'1414.2
2014-Oct-16 18:33N 49°57' W 003°03'2544.7
2014-Oct-16 18:00N 50°00' W 002°24'1125.7 190 / 101006.3 5.4 2.016.516.517.0
2014-Oct-16 17:33N 50°01' W 002°42'1414.5
2014-Oct-16 16:33N 50°04' W 002°20'4213.0
2014-Oct-16 13:20N 50°16' W 001°17'1012.4
2014-Oct-16 12:33N 50°19' W 001°02'4413.9
2014-Oct-16 09:21N 50°31' E 000°05'1214.8
2014-Oct-16 08:33N 50°33' E 000°23'1414.3
2014-Oct-16 07:33N 50°39' E 000°44'1713.8
2014-Oct-16 06:18N 50°51' E 001°04'1012.9
2014-Oct-16 05:33N 50°57' E 001°15'1212.5
2014-Oct-16 04:33N 51°05' E 001°30'1312.8
2014-Oct-16 03:33N 51°13' E 001°46'1413.5
2014-Oct-16 02:33N 51°25' E 001°58'1414.0
2014-Oct-16 01:34N 51°21' E 002°19'1414.4
2014-Oct-16 00:34N 51°23' E 002°42'1514.5
2014-Oct-15 23:33N 51°24' E 003°05'1717.0
2014-Oct-15 22:34N 51°25' E 003°32'1211.9
2014-Oct-15 21:34N 51°21' E 003°50'1111.0
2014-Oct-15 20:34N 51°22' E 004°07'7 6.9
2014-Oct-15 19:33N 51°18' E 004°16'0 0.0
2014-Oct-15 18:33N 51°18' E 004°16'0 0.0
2014-Oct-15 17:33N 51°18' E 004°16'0 0.0
2014-Oct-15 16:33N 51°18' E 004°16'0 0.0
2014-Oct-15 15:30N 51°18' E 004°16'0 0.0
2014-Oct-15 14:33N 51°18' E 004°16'0 0.0
2014-Oct-15 13:27N 51°18' E 004°16'0 0.0
2014-Oct-15 12:33N 51°18' E 004°16'0 0.0
2014-Oct-15 11:30N 51°18' E 004°16'0 0.0
2014-Oct-15 10:33N 51°18' E 004°16'0 0.0
2014-Oct-15 09:33N 51°18' E 004°16'0 0.0
2014-Oct-15 08:33N 51°18' E 004°16'0 0.0
2014-Oct-15 07:33N 51°18' E 004°16'0 0.0
2014-Oct-15 06:33N 51°18' E 004°16'0 0.0
2014-Oct-15 05:33N 51°18' E 004°16'0 0.0
2014-Oct-15 04:33N 51°18' E 004°16'0 0.0
2014-Oct-15 03:33N 51°18' E 004°16'0 0.0
2014-Oct-15 02:33N 51°18' E 004°16'0 0.0
2014-Oct-15 01:33N 51°18' E 004°16'0 0.0
2014-Oct-15 00:33N 51°18' E 004°16'0 0.0
2014-Oct-14 23:33N 51°18' E 004°16'0 0.0
2014-Oct-14 22:33N 51°18' E 004°16'0 0.0
2014-Oct-14 21:33N 51°18' E 004°16'0 0.0
2014-Oct-14 20:33N 51°18' E 004°16'0 0.0
2014-Oct-14 19:33N 51°18' E 004°16'0 0.0
2014-Oct-14 18:33N 51°18' E 004°16'0 0.0
2014-Oct-14 17:33N 51°18' E 004°16'0 0.0
2014-Oct-14 16:33N 51°18' E 004°16'0 0.0
2014-Oct-14 15:30N 51°18' E 004°16'0 0.0
2014-Oct-14 14:33N 51°18' E 004°16'0 0.0
2014-Oct-14 13:33N 51°18' E 004°16'0 0.0
2014-Oct-14 12:33N 51°18' E 004°16'1 0.7
2014-Oct-14 11:34N 51°19' E 004°16'6 6.2
2014-Oct-14 10:33N 51°22' E 004°09'7 7.3
2014-Oct-14 09:33N 51°23' E 003°57'9 9.2
2014-Oct-14 08:33N 51°25' E 003°42'1010.1
2014-Oct-14 07:34N 51°25' E 003°26'1616.1
2014-Oct-14 06:33N 51°26' E 003°00'2222.1
2014-Oct-14 05:33N 51°46' E 003°14'2 1.6
2014-Oct-14 04:33N 51°47' E 003°17'4 3.7
2014-Oct-14 03:30N 51°48' E 003°23'0 0.0
2014-Oct-14 02:30N 51°48' E 003°23'0 0.2
2014-Oct-14 01:21N 51°48' E 003°22'0 0.1
2014-Oct-14 00:33N 51°48' E 003°22'0 0.1
2014-Oct-13 23:24N 51°48' E 003°22'0 0.2
2014-Oct-13 22:33N 51°48' E 003°22'0 0.1
2014-Oct-13 21:33N 51°48' E 003°23'0 0.0
2014-Oct-13 20:30N 51°48' E 003°22'0 0.0
2014-Oct-13 19:30N 51°48' E 003°23'0 0.0
2014-Oct-13 18:15N 51°48' E 003°23'0 0.0
2014-Oct-13 17:18N 51°48' E 003°23'0 0.0
2014-Oct-13 16:30N 51°48' E 003°23'0 0.1
2014-Oct-13 13:21N 51°48' E 003°22'0 0.1
2014-Oct-13 12:33N 51°48' E 003°22'0 0.0
2014-Oct-13 11:27N 51°48' E 003°22'0 0.2
2014-Oct-13 10:29N 51°48' E 003°22'0 0.1
2014-Oct-13 09:33N 51°48' E 003°22'0 0.1
2014-Oct-13 08:31N 51°48' E 003°22'0 0.0
2014-Oct-13 07:33N 51°48' E 003°22'2 1.9
2014-Oct-13 06:31N 51°50' E 003°23'6 6.2
2014-Oct-13 05:29N 51°57' E 003°21'8 8.4
2014-Oct-13 04:30N 52°05' E 003°21'9 7.9
2014-Oct-13 03:25N 52°13' E 003°23'9 8.4
2014-Oct-13 02:17N 52°22' E 003°27'44 9.0
2014-Oct-12 21:23N 52°59' E 004°06'8 9.6
2014-Oct-12 20:33N 53°05' E 004°15'9 8.6
2014-Oct-12 19:33N 53°11' E 004°26'8 7.9
2014-Oct-12 18:33N 53°18' E 004°31'8 7.8
2014-Oct-12 17:33N 53°25' E 004°36'8 7.8
2014-Oct-12 16:33N 53°30' E 004°47'9 9.1
2014-Oct-12 15:33N 53°33' E 005°01'1110.8
2014-Oct-12 14:33N 53°37' E 005°18'1413.6
2014-Oct-12 13:33N 53°41' E 005°40'1312.9
2014-Oct-12 12:33N 53°45' E 006°00'1212.0
2014-Oct-12 11:33N 53°49' E 006°20'1311.3
2014-Oct-12 10:23N 53°52' E 006°41'911.2
2014-Oct-12 09:33N 53°54' E 006°57'2412.0
2014-Oct-12 07:33N 53°59' E 007°37'1211.9
2014-Oct-12 06:33N 53°52' E 007°53'1514.9
2014-Oct-12 05:33N 53°44' E 008°14'1312.6
2014-Oct-12 04:34N 53°36' E 008°31'0 0.0
2014-Oct-12 03:33N 53°36' E 008°31'0 0.0
2014-Oct-12 02:31N 53°36' E 008°31'0 0.0
2014-Oct-12 01:31N 53°36' E 008°31'0 0.0
2014-Oct-12 00:31N 53°36' E 008°31'0 0.0
2014-Oct-11 23:31N 53°36' E 008°31'0 0.0
2014-Oct-11 22:31N 53°36' E 008°31'0 0.0
2014-Oct-11 21:31N 53°36' E 008°31'0 0.0
2014-Oct-11 20:31N 53°36' E 008°31'0 0.0
2014-Oct-11 19:31N 53°36' E 008°31'0 0.0
2014-Oct-11 18:31N 53°36' E 008°31'0 0.0
2014-Oct-11 17:31N 53°36' E 008°31'0 0.0
2014-Oct-11 16:31N 53°36' E 008°31'0 0.0
2014-Oct-11 15:31N 53°36' E 008°31'0 0.0
2014-Oct-11 14:31N 53°36' E 008°31'0 0.0
2014-Oct-11 13:31N 53°36' E 008°31'0 0.0
2014-Oct-11 12:31N 53°36' E 008°31'0 0.0
2014-Oct-11 11:31N 53°36' E 008°31'0 0.0
2014-Oct-11 10:34N 53°36' E 008°31'4 3.6
2014-Oct-11 09:34N 53°38' E 008°26'1616.2
2014-Oct-11 08:34N 53°49' E 008°06'1414.1
2014-Oct-11 07:33N 53°53' E 007°43'1211.9
2014-Oct-11 06:33N 53°54' E 007°23'  

Dump ship's entire track history